Aérodrome :
LOGIN :

S'inscrire | Disclaimer

   EN    FR    IT 

 










Légende :    VFR   VFR Marginal   IFR   IFR Intensif   IFR Très Intensif
Visi : 
Plafond : 
>= 8 km
>= 3000ft
5 à 8 km
1000 à 3000 ft
1500m à 5 km
500 à 1000 ft
800 à 1500m
200 à 500 ft
< 800m
< 200 ft
Symboles :   Orages  Brouillard  Fortes neiges  Fortes précipitations  Vent > 20 kt
SIGMETs :   Divers  Orages  Givrage  Turbulence  Onde Orograph.  Cendres Volcan.







- Altitude de l'aérodrome : 1197 ft
- Code IATA : SPM


ETAD - Spangdahlem Ab

DERNIER METAR :
  • 220956Z 20003KT 9999 SCT026 15/07 A3011 RMK AO2A SLP187 T01470073 $

METARs EXPIRÉS :
  • 220913Z 01011KT 9999 CLR 14/06 A3011 RMK AO2A WSHFT 12 SLP187 $
  • 220856Z 25006KT 9999 SCT021 13/07 A3011 RMK AO2A SLP187 T01320070 52008 $
  • 220850Z AUTO 04018G92KT 9999 SCT021 14/07 A3011 RMK AO2 WSHFT 50 SLP187 $
  • 220826Z AUTO 00000KT 9999 SCT018 12/07 A3010 RMK AO2 SLP185 $
  • 220756Z AUTO 26005KT 9999 BKN017 12/07 A3010 RMK AO2 BKN V SCT SLP184 T01150068 $
  • 220741Z AUTO 34005KT 9999 SCT015 11/07 A3010 RMK AO2 SLP185 $

TAF TAF ETAD
Valide du 22 à 04h jusqu'au 23 à 10h UTC


220358Z 2204/2310 24005KT 6000 BR OVC013 QNH3004INS
BECMG 2207/2208 33010KT 9999 NSW SCT020 BKN030 QNH3005INS
BECMG 2211/2212 33012KT 9999 SCT040 QNH3006INS
TEMPO 2300/2304 8000 BR BKN030 TX16/2214Z TN06/2304Z
Pas de NOTAMs connus pour ce terrain.



MET'MAP, la Météo Aéronautique d'un coup d'oeil ! - Copyright ORBIFLY Décembre 2007 - Disclaimer

ORBIFLY MET'MAP TEAM :

Programmation & Développement : Alexandra Zaïnal
Conception & Développement : Baudouin d'Aumeries
Co-Programmation & Développement : Marc-Olivier Méhu
Soutien technique & logistique : Manuel Goepfert

Contact : metmap@orbifly.com




SOURCES & CREDITS :

   NOAA